< < Back
Terminal Aerodrome Forecast


Current Version              Previous Versions:   1  2  3  4  5  6  7  8  9  

Terminal Aerodrome Forecast

228
FTUS42 KILM 292325
TAFFLO
TAF
KFLO 292325Z 3000/3024 20003KT P6SM SCT250
     FM300900 20005KT P6SM BKN050 WS007/22035KT
     FM301400 23012G21KT P6SM VCSH SCT025 OVC040
      TEMPO 3016/3019 4SM -RA SCT015 BKN025
     FM302000 26012G20KT P6SM SCT020 SCT050=



Latest METAR

833
SAUS70 KWBC 300100 RRE
MTRFLO
METAR KFLO 300053Z 17005KT 10SM CLR 06/M03 A3032 RMK AO2 SLP264
T00611028


USA.gov is the U.S. government's official web portal to all federal, state and local government web resources and services.